createdAt,value
2023-03-30T00:02:22.514Z,5.83
2023-03-30T00:04:50.681Z,5.80
2023-03-30T00:07:18.498Z,6.97
2023-03-30T00:09:46.531Z,6.30
2023-03-30T00:12:20.547Z,5.83
2023-03-30T00:14:48.416Z,6.07
2023-03-30T00:17:16.128Z,6.10
2023-03-30T00:19:43.871Z,5.87
2023-03-30T00:22:11.666Z,5.47
2023-03-30T00:24:39.387Z,5.93
2023-03-30T00:27:07.073Z,6.27
2023-03-30T00:29:36.731Z,5.47
2023-03-30T00:32:04.570Z,5.70
2023-03-30T00:34:32.358Z,5.63
2023-03-30T00:37:00.109Z,5.53
2023-03-30T00:39:27.868Z,5.97
2023-03-30T00:41:55.610Z,5.63
2023-03-30T00:45:03.046Z,5.43
2023-03-30T00:47:32.515Z,5.07
2023-03-30T00:50:00.478Z,5.27
2023-03-30T00:52:28.725Z,5.27
2023-03-30T00:54:58.326Z,4.90
2023-03-30T00:57:27.660Z,5.27
2023-03-30T00:59:57.422Z,4.73
2023-03-30T01:02:25.684Z,5.10
2023-03-30T01:04:58.417Z,4.90
2023-03-30T01:07:26.931Z,5.00
2023-03-30T01:09:55.366Z,4.73
2023-03-30T01:12:23.145Z,4.67
2023-03-30T01:14:51.077Z,5.13
2023-03-30T01:17:28.587Z,5.00
2023-03-30T01:20:29.785Z,4.37
2023-03-30T01:23:28.113Z,4.57
2023-03-30T01:26:29.414Z,4.63
2023-03-30T01:29:03.812Z,4.60
2023-03-30T01:32:14.270Z,5.23
2023-03-30T01:34:57.874Z,4.90
2023-03-30T01:37:58.604Z,5.40
2023-03-30T01:40:32.218Z,4.63
2023-03-30T01:43:09.181Z,5.43
2023-03-30T01:45:44.624Z,5.17
2023-03-30T01:48:16.631Z,4.80
2023-03-30T01:50:49.955Z,4.83
2023-03-30T01:53:23.002Z,5.10
2023-03-30T01:55:56.721Z,5.20
2023-03-30T01:58:30.467Z,5.37
2023-03-30T02:01:00.770Z,5.20
2023-03-30T02:03:30.523Z,5.70
2023-03-30T02:06:04.492Z,5.10
2023-03-30T02:08:35.578Z,5.23
2023-03-30T02:11:05.558Z,5.57
2023-03-30T02:13:35.350Z,5.70
2023-03-30T02:16:07.986Z,5.53
2023-03-30T02:18:38.217Z,5.10
2023-03-30T02:21:06.280Z,5.43
2023-03-30T02:23:38.246Z,5.40
2023-03-30T02:26:08.547Z,6.10
2023-03-30T02:28:36.364Z,6.60
2023-03-30T02:31:05.570Z,6.23
2023-03-30T02:33:42.301Z,5.70
2023-03-30T02:36:27.423Z,6.07
2023-03-30T02:39:10.901Z,6.57
2023-03-30T02:42:04.222Z,7.17
2023-03-30T02:44:39.623Z,7.20
2023-03-30T02:47:12.990Z,7.40
2023-03-30T02:49:54.883Z,7.07
2023-03-30T02:52:43.102Z,7.80
2023-03-30T02:55:18.312Z,7.43
2023-03-30T02:57:56.626Z,7.50
2023-03-30T03:00:29.234Z,7.37
2023-03-30T03:03:00.586Z,7.20
2023-03-30T03:05:29.562Z,6.87
2023-03-30T03:07:57.652Z,6.57
2023-03-30T03:10:25.399Z,6.43
2023-03-30T03:12:54.521Z,6.57
2023-03-30T03:15:22.379Z,7.13
2023-03-30T03:17:51.524Z,6.60
2023-03-30T03:20:19.994Z,6.50
2023-03-30T03:22:47.711Z,6.60
2023-03-30T03:25:15.535Z,6.37
2023-03-30T03:27:43.257Z,6.47
2023-03-30T03:30:13.783Z,6.80
2023-03-30T03:32:41.554Z,6.53
2023-03-30T03:35:10.473Z,5.97
2023-03-30T03:37:38.211Z,6.33
2023-03-30T03:40:07.260Z,6.50
2023-03-30T03:42:35.099Z,6.80
2023-03-30T03:45:02.879Z,6.90
2023-03-30T03:47:33.091Z,6.23
2023-03-30T03:50:03.524Z,6.40
2023-03-30T03:52:32.072Z,6.20
2023-03-30T03:54:59.813Z,6.50
2023-03-30T03:57:27.697Z,6.00
2023-03-30T03:59:59.561Z,6.63
2023-03-30T04:02:28.060Z,6.53
2023-03-30T04:04:57.717Z,6.83
2023-03-30T04:07:26.476Z,6.67
2023-03-30T04:09:54.192Z,6.37
2023-03-30T04:12:21.902Z,6.43
2023-03-30T04:14:49.598Z,6.60
2023-03-30T04:17:17.334Z,7.07
2023-03-30T04:19:45.756Z,7.17
2023-03-30T04:22:14.819Z,6.80
2023-03-30T04:24:44.680Z,7.07
2023-03-30T04:27:14.540Z,6.93
2023-03-30T04:29:44.689Z,7.30
2023-03-30T04:32:12.864Z,7.37
2023-03-30T04:34:42.581Z,6.70
2023-03-30T04:37:10.325Z,6.75
2023-03-30T04:39:39.502Z,6.60
2023-03-30T04:42:07.363Z,6.73
2023-03-30T04:44:35.116Z,6.40
2023-03-30T04:47:02.815Z,7.47
2023-03-30T04:49:30.512Z,6.97
2023-03-30T04:51:58.258Z,6.73
2023-03-30T04:54:26.042Z,6.23
2023-03-30T04:56:55.197Z,6.47
2023-03-30T04:59:22.922Z,6.70
2023-03-30T05:01:50.781Z,6.07
2023-03-30T05:04:18.511Z,5.80
2023-03-30T05:06:49.648Z,6.67
2023-03-30T05:09:18.189Z,6.00
2023-03-30T05:11:46.643Z,6.83
2023-03-30T05:14:16.350Z,6.70
2023-03-30T05:16:44.202Z,6.77
2023-03-30T05:19:12.027Z,6.10
2023-03-30T05:21:39.867Z,6.13
2023-03-30T05:24:08.160Z,6.50
2023-03-30T05:26:36.057Z,6.43
2023-03-30T05:29:03.885Z,6.13
2023-03-30T05:31:32.965Z,6.17
2023-03-30T05:34:00.903Z,6.50
2023-03-30T05:36:28.643Z,6.43
2023-03-30T05:38:56.713Z,6.53
2023-03-30T05:41:24.915Z,5.83
2023-03-30T05:43:52.657Z,5.83
2023-03-30T05:46:21.452Z,5.80
2023-03-30T05:48:50.727Z,5.83
2023-03-30T05:51:18.534Z,5.60
2023-03-30T05:53:46.231Z,6.00
2023-03-30T05:56:14.027Z,6.27
2023-03-30T05:58:41.981Z,6.20
2023-03-30T06:01:11.918Z,6.43
2023-03-30T06:03:40.225Z,6.00
2023-03-30T06:06:10.983Z,6.03
2023-03-30T06:08:38.744Z,5.77
2023-03-30T06:11:07.904Z,6.30
2023-03-30T06:13:35.713Z,5.50
2023-03-30T06:16:03.866Z,5.90
2023-03-30T06:18:31.824Z,6.13
2023-03-30T06:21:02.377Z,5.70
2023-03-30T06:23:32.096Z,6.13
2023-03-30T06:25:59.925Z,6.17
2023-03-30T06:28:28.544Z,5.80
2023-03-30T06:30:56.669Z,6.30
2023-03-30T06:33:25.961Z,5.87
2023-03-30T06:35:55.636Z,5.70
2023-03-30T06:38:24.268Z,5.63
2023-03-30T06:40:53.433Z,5.70
2023-03-30T06:43:23.456Z,5.90
2023-03-30T06:45:52.097Z,5.80
2023-03-30T06:48:20.903Z,5.57
2023-03-30T06:50:48.874Z,5.73
2023-03-30T06:53:16.954Z,6.10
2023-03-30T06:55:45.187Z,5.77
2023-03-30T06:58:14.245Z,6.13
2023-03-30T07:00:42.309Z,5.63
2023-03-30T07:03:10.335Z,6.40
2023-03-30T07:05:38.189Z,6.63
2023-03-30T07:08:08.190Z,6.37
2023-03-30T07:10:35.918Z,6.50
2023-03-30T07:13:03.650Z,6.57
2023-03-30T07:15:32.713Z,7.10
2023-03-30T07:18:00.846Z,7.00
2023-03-30T07:20:28.695Z,6.27
2023-03-30T07:22:56.558Z,5.60
2023-03-30T07:25:24.379Z,6.03
2023-03-30T07:27:52.126Z,5.47
2023-03-30T07:30:22.806Z,5.47
2023-03-30T07:32:52.546Z,4.97
2023-03-30T07:35:20.576Z,5.00
2023-03-30T07:37:50.805Z,4.70
2023-03-30T07:40:19.329Z,4.90
2023-03-30T07:42:47.814Z,4.47
2023-03-30T07:45:16.717Z,4.45
2023-03-30T07:47:44.915Z,4.32
2023-03-30T07:50:14.076Z,5.30
2023-03-30T07:52:41.842Z,4.95
2023-03-30T07:55:11.031Z,4.65
2023-03-30T07:57:38.814Z,4.20
2023-03-30T08:00:10.071Z,4.18
2023-03-30T08:02:38.074Z,4.45
2023-03-30T08:05:06.496Z,4.22
2023-03-30T08:07:36.667Z,4.63
2023-03-30T08:10:05.227Z,4.72
2023-03-30T08:12:32.935Z,4.00
2023-03-30T08:15:01.010Z,4.40
2023-03-30T08:17:28.829Z,3.90
2023-03-30T08:19:57.155Z,3.35
2023-03-30T08:22:24.915Z,3.60
2023-03-30T08:24:54.001Z,4.22
2023-03-30T08:27:21.883Z,3.33
2023-03-30T08:29:50.672Z,3.55
2023-03-30T08:32:18.387Z,2.97
2023-03-30T08:34:46.100Z,2.83
2023-03-30T08:37:13.847Z,3.05
2023-03-30T08:39:41.589Z,2.72
2023-03-30T08:42:24.166Z,2.92
2023-03-30T08:44:55.880Z,2.65
2023-03-30T08:47:31.850Z,3.20
2023-03-30T08:50:03.364Z,2.83
2023-03-30T08:52:32.769Z,2.80
2023-03-30T08:55:00.556Z,2.63
2023-03-30T08:57:40.480Z,3.25
2023-03-30T09:00:23.034Z,2.95
2023-03-30T09:02:54.151Z,3.33
2023-03-30T09:05:27.266Z,2.92
2023-03-30T09:08:02.227Z,2.83
2023-03-30T09:10:36.545Z,2.50
2023-03-30T09:13:07.188Z,2.72
2023-03-30T09:15:37.202Z,3.30
2023-03-30T09:18:13.610Z,2.78
2023-03-30T09:20:44.913Z,3.33
2023-03-30T09:23:16.385Z,3.15
2023-03-30T09:25:51.500Z,2.83
2023-03-30T09:28:25.004Z,3.30
2023-03-30T09:30:57.708Z,3.17
2023-03-30T09:33:32.383Z,3.00
2023-03-30T09:36:11.371Z,3.72
2023-03-30T09:38:41.827Z,2.92
2023-03-30T09:41:20.056Z,3.00
2023-03-30T09:43:51.901Z,3.55
2023-03-30T09:46:19.772Z,2.92
2023-03-30T09:48:49.224Z,2.80
2023-03-30T09:51:20.661Z,3.10
2023-03-30T09:53:51.385Z,3.10
2023-03-30T09:56:23.126Z,3.95
2023-03-30T09:58:52.216Z,3.20
2023-03-30T10:01:22.036Z,3.63
2023-03-30T10:04:08.970Z,3.65
2023-03-30T10:06:40.466Z,3.25
2023-03-30T10:09:12.968Z,3.38
2023-03-30T10:11:43.951Z,3.35
2023-03-30T10:14:33.355Z,3.72
2023-03-30T10:17:01.983Z,3.30
2023-03-30T10:19:30.371Z,3.63
2023-03-30T10:21:59.534Z,3.38
2023-03-30T10:24:29.313Z,3.17
2023-03-30T10:26:59.831Z,3.33
2023-03-30T10:29:30.663Z,2.80
2023-03-30T10:32:02.054Z,3.28
2023-03-30T10:34:37.505Z,3.38
2023-03-30T10:37:07.936Z,3.67
2023-03-30T10:39:37.208Z,3.20
2023-03-30T10:42:07.929Z,3.13
2023-03-30T10:44:42.677Z,3.47
2023-03-30T10:47:27.107Z,2.97
2023-03-30T10:50:05.894Z,3.38
2023-03-30T10:52:56.023Z,3.22
2023-03-30T10:55:33.551Z,3.42
2023-03-30T10:58:08.409Z,3.45
2023-03-30T11:00:51.393Z,3.25
2023-03-30T11:03:24.688Z,3.45
2023-03-30T11:05:55.016Z,3.10
2023-03-30T11:08:26.974Z,3.75
2023-03-30T11:10:57.214Z,3.33
2023-03-30T11:13:27.762Z,3.85
2023-03-30T11:15:58.525Z,3.50
2023-03-30T11:18:33.282Z,3.10
2023-03-30T11:21:05.106Z,3.67
2023-03-30T11:23:43.372Z,6.00
2023-03-30T11:26:12.906Z,3.72
2023-03-30T11:28:53.967Z,3.28
2023-03-30T11:31:36.312Z,3.88
2023-03-30T11:34:12.826Z,3.72
2023-03-30T11:36:46.402Z,3.42
2023-03-30T11:39:31.039Z,3.53
2023-03-30T11:42:08.129Z,3.67
2023-03-30T11:44:36.230Z,3.17
2023-03-30T11:47:18.281Z,3.55
2023-03-30T11:50:00.828Z,3.03
2023-03-30T11:52:34.711Z,2.90
2023-03-30T11:55:35.174Z,3.33
2023-03-30T11:58:13.384Z,3.38
2023-03-30T12:00:52.497Z,3.28
2023-03-30T12:03:36.746Z,3.15
2023-03-30T12:06:25.819Z,2.97
2023-03-30T12:09:06.109Z,3.00
2023-03-30T12:11:40.269Z,3.08
2023-03-30T12:14:33.907Z,3.13
2023-03-30T12:17:07.948Z,3.13
2023-03-30T12:19:55.582Z,3.40
2023-03-30T12:22:31.247Z,3.40
2023-03-30T12:25:06.847Z,3.35
2023-03-30T12:27:38.741Z,3.50
2023-03-30T12:30:15.833Z,3.17
2023-03-30T12:33:00.577Z,3.40
2023-03-30T12:35:58.162Z,3.50
2023-03-30T12:38:27.612Z,3.60
2023-03-30T12:41:18.171Z,3.38
2023-03-30T12:44:29.040Z,3.25
2023-03-30T12:47:11.682Z,3.60
2023-03-30T12:49:52.128Z,3.55
2023-03-30T12:52:31.393Z,3.63
2023-03-30T12:55:24.724Z,3.22
2023-03-30T12:58:05.954Z,3.33
2023-03-30T13:00:51.063Z,3.40
2023-03-30T13:03:37.778Z,2.83
2023-03-30T13:06:08.937Z,3.75
2023-03-30T13:08:40.824Z,3.22
2023-03-30T13:11:15.667Z,3.55
2023-03-30T13:13:52.878Z,3.85
2023-03-30T13:17:16.462Z,3.63
2023-03-30T13:19:49.485Z,3.28
2023-03-30T13:22:29.509Z,3.38
2023-03-30T13:25:01.327Z,2.92
2023-03-30T13:27:33.913Z,2.97
2023-03-30T13:30:03.544Z,3.33
2023-03-30T13:32:44.779Z,3.42
2023-03-30T13:35:32.042Z,3.03
2023-03-30T13:38:16.917Z,3.00
2023-03-30T13:41:04.018Z,3.33
2023-03-30T13:43:48.232Z,3.05
2023-03-30T13:46:24.722Z,3.33
2023-03-30T13:49:03.518Z,3.42
2023-03-30T13:51:32.427Z,3.25
2023-03-30T13:54:03.927Z,3.10
2023-03-30T13:56:36.613Z,3.38
2023-03-30T13:59:07.204Z,3.25
2023-03-30T14:01:39.112Z,3.38
2023-03-30T14:04:10.770Z,3.13
2023-03-30T14:06:45.799Z,3.13
2023-03-30T14:09:15.886Z,3.28
2023-03-30T14:11:47.157Z,2.55
2023-03-30T14:14:19.141Z,2.03
2023-03-30T14:16:47.320Z,1.63
2023-03-30T14:19:22.368Z,1.88
2023-03-30T14:21:50.148Z,2.88
2023-03-30T14:24:20.271Z,2.90
2023-03-30T14:26:50.345Z,2.10
2023-03-30T14:29:30.404Z,2.33
2023-03-30T14:34:34.852Z,2.90
2023-03-30T14:58:39.735Z,3.43
2023-03-30T15:01:15.274Z,3.27
2023-03-30T15:03:44.076Z,2.90
2023-03-30T15:06:16.449Z,2.87
2023-03-30T15:08:47.457Z,3.03
2023-03-30T15:11:20.513Z,2.93
2023-03-30T15:13:52.381Z,3.23
2023-03-30T15:16:23.887Z,3.20
2023-03-30T15:18:53.530Z,3.00
2023-03-30T15:21:21.469Z,3.53
2023-03-30T15:23:51.054Z,2.87
2023-03-30T15:26:19.788Z,3.43
2023-03-30T15:28:52.543Z,3.57
2023-03-30T15:31:21.319Z,3.80
2023-03-30T15:33:52.634Z,3.23
2023-03-30T15:36:22.905Z,3.37
2023-03-30T15:38:53.667Z,3.87
2023-03-30T15:41:23.831Z,3.97
2023-03-30T15:43:58.707Z,3.93
2023-03-30T15:46:28.818Z,4.00
2023-03-30T15:48:58.726Z,4.33
2023-03-30T15:51:29.995Z,4.37
2023-03-30T15:54:02.233Z,4.17
2023-03-30T15:56:34.696Z,4.00
2023-03-30T15:59:03.929Z,4.60
2023-03-30T16:01:48.643Z,4.20
2023-03-30T16:04:18.656Z,4.27
2023-03-30T16:06:47.454Z,4.73
2023-03-30T16:09:15.919Z,4.77
2023-03-30T16:11:45.055Z,4.83
2023-03-30T16:14:17.969Z,4.90
2023-03-30T16:16:45.761Z,5.23
2023-03-30T16:19:14.750Z,4.67
2023-03-30T16:21:45.143Z,4.30
2023-03-30T16:24:13.389Z,4.47
2023-03-30T16:26:41.276Z,4.00
2023-03-30T16:29:19.093Z,4.37
2023-03-30T16:31:46.996Z,4.37
2023-03-30T16:34:14.782Z,5.17
2023-03-30T16:36:42.776Z,4.07
2023-03-30T16:39:18.326Z,4.60
2023-03-30T16:41:46.835Z,4.70
2023-03-30T16:44:15.973Z,4.33
2023-03-30T16:46:43.942Z,4.30
2023-03-30T16:49:14.474Z,4.20
2023-03-30T16:51:42.573Z,4.50
2023-03-30T16:54:19.787Z,4.40
2023-03-30T16:56:57.765Z,4.13
2023-03-30T16:59:29.123Z,4.50
2023-03-30T17:01:57.097Z,4.73
2023-03-30T17:04:24.940Z,4.60
2023-03-30T17:06:53.727Z,4.00
2023-03-30T17:09:22.060Z,4.50
2023-03-30T17:11:50.413Z,5.10
2023-03-30T17:14:20.102Z,4.67
2023-03-30T17:16:49.385Z,4.73
2023-03-30T17:19:17.197Z,4.47
2023-03-30T17:21:46.048Z,4.80
2023-03-30T17:24:16.390Z,4.00
2023-03-30T17:26:44.383Z,4.60
2023-03-30T17:29:12.356Z,4.93
2023-03-30T17:31:45.603Z,4.77
2023-03-30T17:34:15.509Z,5.20
2023-03-30T17:36:43.613Z,4.67
2023-03-30T17:39:14.016Z,4.60
2023-03-30T17:41:41.798Z,5.10
2023-03-30T17:44:09.529Z,5.13
2023-03-30T17:46:37.393Z,5.10
2023-03-30T17:49:05.292Z,5.00
2023-03-30T17:51:34.944Z,5.53
2023-03-30T17:54:02.834Z,5.07
2023-03-30T17:56:30.644Z,5.17
2023-03-30T17:58:58.442Z,5.60
2023-03-30T18:01:26.268Z,6.00
2023-03-30T18:03:53.991Z,6.27
2023-03-30T18:06:21.808Z,5.37
2023-03-30T18:08:50.915Z,5.77
2023-03-30T18:11:18.755Z,5.90
2023-03-30T18:13:46.525Z,6.00
2023-03-30T18:16:15.076Z,6.20
2023-03-30T18:18:42.921Z,6.00
2023-03-30T18:21:11.469Z,7.47
2023-03-30T18:23:39.185Z,6.00
2023-03-30T18:26:12.294Z,6.10
2023-03-30T18:28:42.298Z,5.97
2023-03-30T18:31:10.368Z,6.23
2023-03-30T18:33:39.241Z,6.80
2023-03-30T18:36:08.362Z,6.47
2023-03-30T18:38:36.556Z,5.77
2023-03-30T18:41:04.569Z,6.00
2023-03-30T18:43:33.955Z,5.73
2023-03-30T18:46:02.384Z,5.93
2023-03-30T18:48:30.981Z,5.77
2023-03-30T18:50:59.086Z,6.77
2023-03-30T18:53:28.618Z,8.60
2023-03-30T18:55:58.476Z,6.87
2023-03-30T18:58:27.936Z,5.83
2023-03-30T19:00:57.505Z,5.90
2023-03-30T19:03:27.219Z,5.80
2023-03-30T19:05:55.298Z,5.60
2023-03-30T19:08:24.833Z,6.17
2023-03-30T19:10:54.932Z,5.67
2023-03-30T19:13:23.655Z,6.50
2023-03-30T19:15:52.801Z,6.77
2023-03-30T19:18:22.512Z,5.97
2023-03-30T19:20:51.920Z,6.23
2023-03-30T19:23:21.509Z,7.10
2023-03-30T19:25:49.803Z,6.23
2023-03-30T19:28:17.895Z,5.77
2023-03-30T19:30:45.720Z,5.90
2023-03-30T19:33:16.182Z,6.00
2023-03-30T19:35:46.585Z,5.67
2023-03-30T19:38:14.917Z,4.83
2023-03-30T19:40:43.433Z,5.20
2023-03-30T19:43:11.912Z,4.50
2023-03-30T19:45:40.470Z,4.60
2023-03-30T19:48:08.263Z,4.00
2023-03-30T19:50:38.481Z,3.97
2023-03-30T19:53:07.645Z,5.00
2023-03-30T19:55:37.471Z,4.73
2023-03-30T19:58:05.255Z,4.27
2023-03-30T20:00:34.912Z,4.00
2023-03-30T20:03:03.326Z,3.90
2023-03-30T20:05:31.398Z,3.87
2023-03-30T20:08:00.858Z,3.83
2023-03-30T20:10:34.744Z,3.73
2023-03-30T20:13:02.470Z,3.60
2023-03-30T20:15:30.263Z,3.57
2023-03-30T20:17:59.408Z,3.67
2023-03-30T20:20:27.156Z,3.90
2023-03-30T20:22:56.511Z,3.93
2023-03-30T20:25:24.947Z,4.23
2023-03-30T20:27:54.575Z,4.57
2023-03-30T20:30:22.633Z,4.17
2023-03-30T20:33:06.355Z,4.43
2023-03-30T20:35:36.490Z,4.13
2023-03-30T20:38:04.627Z,4.00
2023-03-30T20:40:33.755Z,3.83
2023-03-30T20:43:03.762Z,4.77
2023-03-30T20:45:32.127Z,5.30
2023-03-30T20:48:06.064Z,5.20
2023-03-30T20:50:34.561Z,4.43
2023-03-30T20:53:02.615Z,5.27
2023-03-30T20:55:30.356Z,4.63
2023-03-30T20:57:58.199Z,5.07
2023-03-30T21:00:27.455Z,4.50
2023-03-30T21:02:55.229Z,4.77
2023-03-30T21:05:23.080Z,4.47
2023-03-30T21:07:54.029Z,4.80
2023-03-30T21:10:22.038Z,5.23
2023-03-30T21:12:49.792Z,4.43
2023-03-30T21:15:18.028Z,5.03
2023-03-30T21:17:47.104Z,5.10
2023-03-30T21:20:14.955Z,5.33
2023-03-30T21:22:42.644Z,4.67
2023-03-30T21:25:12.726Z,4.63
2023-03-30T21:27:40.626Z,4.20
2023-03-30T21:30:10.699Z,4.07
2023-03-30T21:32:38.432Z,4.30
2023-03-30T21:35:08.018Z,4.30
2023-03-30T21:37:35.964Z,3.87
2023-03-30T21:40:03.766Z,4.10
2023-03-30T21:42:34.010Z,3.50
2023-03-30T21:45:01.712Z,3.70
2023-03-30T21:47:29.747Z,4.17
2023-03-30T21:49:57.464Z,3.50
2023-03-30T21:52:27.168Z,3.17
2023-03-30T21:54:54.888Z,3.50
2023-03-30T21:57:22.698Z,3.20
2023-03-30T21:59:50.478Z,3.23
2023-03-30T22:02:18.222Z,3.33
2023-03-30T22:04:45.921Z,3.33
2023-03-30T22:07:13.663Z,3.87
2023-03-30T22:09:42.704Z,3.30
2023-03-30T22:12:10.428Z,3.30
2023-03-30T22:14:38.166Z,3.43
2023-03-30T22:17:07.776Z,3.63
2023-03-30T22:19:35.587Z,3.63
2023-03-30T22:22:04.754Z,3.80
2023-03-30T22:24:32.447Z,3.63
2023-03-30T22:27:01.491Z,3.97
2023-03-30T22:29:29.195Z,4.60
2023-03-30T22:31:56.914Z,4.13
2023-03-30T22:34:24.677Z,4.40
2023-03-30T22:36:52.845Z,4.37
2023-03-30T22:39:21.058Z,4.20
2023-03-30T22:41:48.801Z,4.20
2023-03-30T22:44:19.360Z,4.27
2023-03-30T22:46:47.080Z,4.23
2023-03-30T22:49:15.419Z,3.30
2023-03-30T22:51:52.578Z,4.63
2023-03-30T22:54:22.320Z,4.13
2023-03-30T22:56:50.099Z,3.80
2023-03-30T22:59:19.176Z,3.90
2023-03-30T23:01:46.944Z,3.83
2023-03-30T23:04:14.669Z,3.13
2023-03-30T23:06:43.512Z,3.30
2023-03-30T23:09:13.615Z,3.53
2023-03-30T23:11:45.469Z,2.87
2023-03-30T23:14:13.608Z,3.60
2023-03-30T23:16:42.679Z,3.53
2023-03-30T23:19:12.058Z,3.50
2023-03-30T23:21:41.004Z,3.00
2023-03-30T23:24:12.240Z,3.10
2023-03-30T23:26:40.348Z,2.90
2023-03-30T23:29:08.217Z,2.40
2023-03-30T23:31:36.005Z,3.17
2023-03-30T23:34:05.290Z,2.90
2023-03-30T23:36:33.009Z,2.73
2023-03-30T23:39:00.724Z,2.70
2023-03-30T23:41:29.153Z,2.90
2023-03-30T23:43:56.872Z,2.97
2023-03-30T23:46:25.525Z,2.83
2023-03-30T23:48:53.327Z,2.57
2023-03-30T23:51:22.750Z,2.80
2023-03-30T23:53:54.362Z,2.83
2023-03-30T23:56:25.730Z,2.20
2023-03-30T23:58:53.747Z,2.40
